createdAt,value
2019-05-09T00:02:39.641Z,7.97
2019-05-09T00:05:10.125Z,8.48
2019-05-09T00:07:39.963Z,8.23
2019-05-09T00:10:10.623Z,9.20
2019-05-09T00:12:40.412Z,8.75
2019-05-09T00:15:10.404Z,9.40
2019-05-09T00:17:40.203Z,8.98
2019-05-09T00:20:17.384Z,10.10
2019-05-09T00:22:47.110Z,7.33
2019-05-09T00:25:16.872Z,8.55
2019-05-09T00:27:46.629Z,9.40
2019-05-09T00:30:18.052Z,8.80
2019-05-09T00:32:47.903Z,8.28
2019-05-09T00:35:38.868Z,8.05
2019-05-09T00:38:09.596Z,7.25
2019-05-09T00:40:53.017Z,7.33
2019-05-09T00:43:13.077Z,6.35
2019-05-09T00:46:03.851Z,5.47
2019-05-09T00:48:43.913Z,4.45
2019-05-09T00:51:14.091Z,4.20
2019-05-09T00:53:44.523Z,3.65
2019-05-09T00:56:14.446Z,3.27
2019-05-09T00:58:44.297Z,3.83
2019-05-09T01:01:15.238Z,3.40
2019-05-09T01:03:45.190Z,2.70
2019-05-09T01:06:15.114Z,2.65
2019-05-09T01:08:44.938Z,2.20
2019-05-09T01:11:15.706Z,2.15
2019-05-09T01:13:45.503Z,2.90
2019-05-09T01:16:15.316Z,2.12
2019-05-09T01:18:45.132Z,2.12
2019-05-09T01:21:14.892Z,2.33
2019-05-09T01:23:44.712Z,2.05
2019-05-09T01:26:28.589Z,1.85
2019-05-09T01:28:45.990Z,2.15
2019-05-09T01:31:15.826Z,2.02
2019-05-09T01:34:07.702Z,1.95
2019-05-09T01:36:55.170Z,1.87
2019-05-09T01:39:25.053Z,1.90
2019-05-09T01:41:54.936Z,1.77
2019-05-09T01:44:24.697Z,1.60
2019-05-09T01:46:54.536Z,1.50
2019-05-09T01:49:24.367Z,1.60
2019-05-09T01:51:54.124Z,1.50
2019-05-09T01:54:25.067Z,1.45
2019-05-09T01:56:55.034Z,1.40
2019-05-09T01:59:25.674Z,1.45
2019-05-09T02:01:55.421Z,1.52
2019-05-09T02:04:25.372Z,1.50
2019-05-09T02:06:55.137Z,1.60
2019-05-09T02:09:24.937Z,1.72
2019-05-09T02:11:54.762Z,1.67
2019-05-09T02:14:54.242Z,1.70
2019-05-09T02:17:38.874Z,1.45
2019-05-09T02:20:09.052Z,1.20
2019-05-09T02:22:38.862Z,1.40
2019-05-09T02:25:10.083Z,1.37
2019-05-09T02:27:39.845Z,0.85
2019-05-09T02:30:10.602Z,0.90
2019-05-09T02:32:40.352Z,1.00
2019-05-09T02:35:10.560Z,0.78
2019-05-09T02:37:40.301Z,0.90
2019-05-09T02:40:10.594Z,0.82
2019-05-09T02:42:40.469Z,0.82
2019-05-09T02:45:10.745Z,1.10
2019-05-09T02:47:40.457Z,0.80
2019-05-09T02:50:10.808Z,0.80
2019-05-09T02:52:40.614Z,0.60
2019-05-09T02:55:10.855Z,0.40
2019-05-09T02:57:40.717Z,0.50
2019-05-09T03:00:33.775Z,0.75
2019-05-09T03:03:20.979Z,0.60
2019-05-09T03:05:50.906Z,0.50
2019-05-09T03:08:20.745Z,0.60
2019-05-09T03:10:50.617Z,0.70
2019-05-09T03:13:20.399Z,0.70
2019-05-09T03:15:51.865Z,0.88
2019-05-09T03:18:21.617Z,1.17
2019-05-09T03:21:01.164Z,1.20
2019-05-09T03:23:30.913Z,1.10
2019-05-09T03:26:00.657Z,0.85
2019-05-09T03:28:59.284Z,1.07
2019-05-09T03:34:00.031Z,0.90
2019-05-09T03:36:29.844Z,1.30
2019-05-09T03:38:59.646Z,1.55
2019-05-09T03:41:29.468Z,4.45
2019-05-09T03:43:59.231Z,2.15
2019-05-09T03:46:38.271Z,1.47
2019-05-09T03:49:08.013Z,2.55
2019-05-09T03:51:38.028Z,1.52
2019-05-09T03:54:08.184Z,2.15
2019-05-09T03:56:41.943Z,1.27
2019-05-09T03:59:11.635Z,0.80
2019-05-09T04:01:41.429Z,1.47
2019-05-09T04:04:11.205Z,0.90
2019-05-09T04:06:40.922Z,0.90
2019-05-09T04:09:11.022Z,0.78
2019-05-09T04:11:40.861Z,0.80
2019-05-09T04:14:14.358Z,0.55
2019-05-09T04:16:44.187Z,0.50
2019-05-09T04:19:13.916Z,0.70
2019-05-09T04:21:43.657Z,0.60
2019-05-09T04:24:13.409Z,0.65
2019-05-09T04:26:57.646Z,0.65
2019-05-09T04:29:28.630Z,0.50
2019-05-09T04:31:58.553Z,0.42
2019-05-09T04:34:28.275Z,0.42
2019-05-09T04:36:58.008Z,0.50
2019-05-09T04:39:28.488Z,0.50
2019-05-09T04:42:03.404Z,0.40
2019-05-09T04:44:38.456Z,0.57
2019-05-09T04:47:08.705Z,0.70
2019-05-09T04:49:41.077Z,0.60
2019-05-09T04:52:10.180Z,0.90
2019-05-09T04:54:39.962Z,0.80
2019-05-09T04:57:09.802Z,0.93
2019-05-09T04:59:39.499Z,0.70
2019-05-09T05:02:27.566Z,0.50
2019-05-09T05:04:58.509Z,0.50
2019-05-09T05:07:38.586Z,0.50
2019-05-09T05:10:09.213Z,0.62
2019-05-09T05:12:39.054Z,0.90
2019-05-09T05:15:09.119Z,1.00
2019-05-09T05:17:38.855Z,0.80
2019-05-09T05:20:12.067Z,1.00
2019-05-09T05:23:08.254Z,0.80
2019-05-09T05:25:38.347Z,0.90
2019-05-09T05:28:08.672Z,0.80
2019-05-09T05:30:41.428Z,1.10
2019-05-09T05:33:28.744Z,0.65
2019-05-09T05:36:00.445Z,0.85
2019-05-09T05:38:30.192Z,1.20
2019-05-09T05:41:00.486Z,1.10
2019-05-09T05:43:40.854Z,1.27
2019-05-09T05:46:11.165Z,0.95
2019-05-09T05:48:43.907Z,1.20
2019-05-09T05:51:13.572Z,1.57
2019-05-09T05:53:43.346Z,1.30
2019-05-09T05:56:13.107Z,1.40
2019-05-09T05:58:43.809Z,0.90
2019-05-09T06:01:13.506Z,0.90
2019-05-09T06:03:43.305Z,1.40
2019-05-09T06:06:13.049Z,1.00
2019-05-09T06:08:42.822Z,1.25
2019-05-09T06:11:17.544Z,0.90
2019-05-09T06:13:56.476Z,0.95
2019-05-09T06:16:22.340Z,0.80
2019-05-09T06:18:51.851Z,0.70
2019-05-09T06:21:21.601Z,0.62
2019-05-09T06:23:51.345Z,0.80
2019-05-09T06:26:21.252Z,0.75
2019-05-09T06:28:50.985Z,0.70
2019-05-09T06:31:20.764Z,0.80
2019-05-09T06:33:53.520Z,0.50
2019-05-09T06:36:22.487Z,0.80
2019-05-09T06:38:52.451Z,0.78
2019-05-09T06:41:22.311Z,0.90
2019-05-09T06:44:11.085Z,0.60
2019-05-09T06:46:42.371Z,0.80
2019-05-09T06:49:24.203Z,1.00
2019-05-09T06:51:49.996Z,1.00
2019-05-09T06:54:19.758Z,1.07
2019-05-09T06:56:49.543Z,1.00
2019-05-09T06:59:19.322Z,0.80
2019-05-09T07:01:52.905Z,1.00
2019-05-09T07:04:27.770Z,1.20
2019-05-09T07:07:09.691Z,1.45
2019-05-09T07:09:44.394Z,1.17
2019-05-09T07:12:14.332Z,0.95
2019-05-09T07:14:44.005Z,1.25
2019-05-09T07:17:13.678Z,0.90
2019-05-09T07:19:44.066Z,1.20
2019-05-09T07:22:32.151Z,1.00
2019-05-09T07:25:09.340Z,1.00
2019-05-09T07:27:39.086Z,0.98
2019-05-09T07:30:30.349Z,1.12
2019-05-09T07:33:08.629Z,1.17
2019-05-09T07:35:38.444Z,1.25
2019-05-09T07:38:08.695Z,0.80
2019-05-09T07:40:38.741Z,0.70
2019-05-09T07:43:08.648Z,0.50
2019-05-09T07:45:39.971Z,0.65
2019-05-09T07:48:09.705Z,1.00
2019-05-09T07:50:39.434Z,0.80
2019-05-09T07:53:09.226Z,0.82
2019-05-09T07:55:38.907Z,0.70
2019-05-09T07:58:08.645Z,0.75
2019-05-09T08:00:38.692Z,0.85
2019-05-09T08:03:12.889Z,0.90
2019-05-09T08:05:39.991Z,0.80
2019-05-09T08:08:14.829Z,0.88
2019-05-09T08:10:44.775Z,0.70
2019-05-09T08:13:14.504Z,0.80
2019-05-09T08:15:44.307Z,0.75
2019-05-09T08:18:14.063Z,0.53
2019-05-09T08:20:43.801Z,0.70
2019-05-09T08:23:13.561Z,0.80
2019-05-09T08:25:43.295Z,0.55
2019-05-09T08:28:13.055Z,0.70
2019-05-09T08:30:42.783Z,0.65
2019-05-09T08:33:12.569Z,0.40
2019-05-09T08:35:42.333Z,0.40
2019-05-09T08:38:12.093Z,0.57
2019-05-09T08:40:41.845Z,0.42
2019-05-09T08:43:11.644Z,0.50
2019-05-09T08:45:41.422Z,0.60
2019-05-09T08:48:11.114Z,0.60
2019-05-09T08:50:48.293Z,0.45
2019-05-09T08:53:18.849Z,0.50
2019-05-09T08:55:48.907Z,0.40
2019-05-09T08:58:19.609Z,0.30
2019-05-09T09:00:49.991Z,0.37
2019-05-09T09:03:19.674Z,0.40
2019-05-09T09:05:49.422Z,0.60
2019-05-09T09:08:19.200Z,0.60
2019-05-09T09:10:49.092Z,0.70
2019-05-09T09:13:18.849Z,0.60
2019-05-09T09:16:08.264Z,0.60
2019-05-09T09:18:20.021Z,0.80
2019-05-09T09:20:49.870Z,0.90
2019-05-09T09:23:19.603Z,0.72
2019-05-09T09:25:49.529Z,0.50
2019-05-09T09:28:19.232Z,0.93
2019-05-09T09:30:50.914Z,0.60
2019-05-09T09:33:23.397Z,0.60
2019-05-09T09:35:53.122Z,0.88
2019-05-09T09:38:22.896Z,0.60
2019-05-09T09:41:18.150Z,0.70
2019-05-09T09:45:18.344Z,0.80
2019-05-09T09:48:18.094Z,0.80
2019-05-09T09:51:02.935Z,0.80
2019-05-09T09:53:24.274Z,1.02
2019-05-09T09:55:53.983Z,0.50
2019-05-09T09:58:23.699Z,0.80
2019-05-09T10:01:12.375Z,0.62
2019-05-09T10:03:42.860Z,0.70
2019-05-09T10:06:12.698Z,0.60
2019-05-09T10:08:42.414Z,0.68
2019-05-09T10:11:12.224Z,0.85
2019-05-09T10:13:41.971Z,0.68
2019-05-09T10:16:33.463Z,0.60
2019-05-09T10:19:13.826Z,0.80
2019-05-09T10:21:48.612Z,0.70
2019-05-09T10:24:18.081Z,0.72
2019-05-09T10:27:08.811Z,0.80
2019-05-09T10:29:38.859Z,0.90
2019-05-09T10:32:11.952Z,1.07
2019-05-09T10:34:41.841Z,0.80
2019-05-09T10:37:11.732Z,0.80
2019-05-09T10:39:41.508Z,0.70
2019-05-09T10:42:21.515Z,0.60
2019-05-09T10:44:58.534Z,0.50
2019-05-09T10:47:30.844Z,0.80
2019-05-09T10:50:00.551Z,0.80
2019-05-09T10:52:30.732Z,0.90
2019-05-09T11:04:49.116Z,0.68
2019-05-09T11:07:18.808Z,0.70
2019-05-09T11:09:48.575Z,0.57
2019-05-09T11:12:21.078Z,0.60
2019-05-09T11:14:53.068Z,0.98
2019-05-09T11:17:22.875Z,0.90
2019-05-09T11:19:52.725Z,0.78
2019-05-09T11:22:23.589Z,0.98
2019-05-09T11:24:57.910Z,1.10
2019-05-09T11:27:29.171Z,0.70
2019-05-09T11:29:59.196Z,1.12
2019-05-09T11:32:28.957Z,0.90
2019-05-09T11:34:58.731Z,1.02
2019-05-09T11:37:28.829Z,0.70
2019-05-09T11:39:58.599Z,0.90
2019-05-09T11:42:28.666Z,1.10
2019-05-09T11:44:58.470Z,0.95
2019-05-09T11:47:36.471Z,0.70
2019-05-09T11:49:59.976Z,0.80
2019-05-09T11:52:29.754Z,0.85
2019-05-09T11:54:59.681Z,0.82
2019-05-09T11:57:40.399Z,0.98
2019-05-09T12:00:11.154Z,0.90
2019-05-09T12:02:41.614Z,0.70
2019-05-09T12:05:11.530Z,1.00
2019-05-09T12:07:41.271Z,0.88
2019-05-09T12:10:11.203Z,0.70
2019-05-09T12:12:40.988Z,0.85
2019-05-09T12:15:11.499Z,1.00
2019-05-09T12:17:57.256Z,0.78
2019-05-09T12:20:13.755Z,0.80
2019-05-09T12:23:19.953Z,0.78
2019-05-09T12:25:48.490Z,0.70
2019-05-09T12:28:19.027Z,0.93
2019-05-09T12:30:49.044Z,0.82
2019-05-09T12:33:19.164Z,0.60
2019-05-09T12:35:48.898Z,0.90
2019-05-09T12:38:18.681Z,0.90
2019-05-09T12:40:48.372Z,0.78
2019-05-09T12:43:18.651Z,1.00
2019-05-09T12:45:48.436Z,0.68
2019-05-09T12:48:19.494Z,0.90
2019-05-09T12:50:49.555Z,0.90
2019-05-09T12:53:19.241Z,0.78
2019-05-09T12:55:50.812Z,1.10
2019-05-09T12:58:29.525Z,1.10
2019-05-09T13:01:00.295Z,0.80
2019-05-09T13:03:30.353Z,1.17
2019-05-09T13:06:09.205Z,0.70
2019-05-09T13:08:38.972Z,1.00
2019-05-09T13:11:08.734Z,0.80
2019-05-09T13:13:40.680Z,1.02
2019-05-09T13:16:44.192Z,0.85
2019-05-09T13:19:14.871Z,1.10
2019-05-09T13:21:44.715Z,1.00
2019-05-09T15:03:19.149Z,0.90
2019-05-09T15:05:48.865Z,1.15
2019-05-09T15:08:18.519Z,1.40
2019-05-09T15:10:48.268Z,1.10
2019-05-09T15:13:18.367Z,1.10
2019-05-09T15:15:48.208Z,0.70
2019-05-09T15:18:17.945Z,0.53
2019-05-09T15:20:47.960Z,1.07
2019-05-09T15:23:20.625Z,0.68
2019-05-09T15:25:50.356Z,0.88
2019-05-09T15:28:21.566Z,0.95
2019-05-09T15:30:54.492Z,0.80
2019-05-09T15:33:27.604Z,1.12
2019-05-09T15:35:58.965Z,1.17
2019-05-09T15:38:29.115Z,1.10
2019-05-09T15:40:58.922Z,0.93
2019-05-09T15:43:28.704Z,0.90
2019-05-09T15:46:04.869Z,0.80
2019-05-09T15:48:34.724Z,0.90
2019-05-09T15:51:04.449Z,0.98
2019-05-09T15:53:37.980Z,0.93
2019-05-09T15:56:08.015Z,0.90
2019-05-09T15:58:38.501Z,0.90
2019-05-09T16:01:08.379Z,0.98
2019-05-09T16:03:38.334Z,0.78
2019-05-09T16:06:09.023Z,0.85
2019-05-09T16:08:38.852Z,0.88
2019-05-09T16:11:08.987Z,0.85
2019-05-09T16:13:38.864Z,0.82
2019-05-09T16:16:09.015Z,1.17
2019-05-09T16:18:38.861Z,1.10
2019-05-09T16:21:08.525Z,0.93
2019-05-09T16:23:38.195Z,0.90
2019-05-09T16:26:10.717Z,1.00
2019-05-09T16:28:40.379Z,1.30
2019-05-09T16:31:10.120Z,0.78
2019-05-09T16:33:39.800Z,0.95
2019-05-09T16:36:09.535Z,1.02
2019-05-09T16:38:45.360Z,0.80
2019-05-09T16:41:10.631Z,1.10
2019-05-09T16:43:40.370Z,1.50
2019-05-09T16:46:10.136Z,1.70
2019-05-09T16:48:40.060Z,1.17
2019-05-09T16:51:09.777Z,0.95
2019-05-09T16:53:39.624Z,0.98
2019-05-09T16:56:11.631Z,0.90
2019-05-09T16:58:41.350Z,0.70
2019-05-09T17:01:11.143Z,0.85
2019-05-09T17:03:41.255Z,0.60
2019-05-09T17:06:10.906Z,0.70
2019-05-09T17:08:40.672Z,1.00
2019-05-09T17:11:10.753Z,0.80
2019-05-09T17:13:40.447Z,0.62
2019-05-09T17:16:10.152Z,0.75
2019-05-09T17:18:41.332Z,0.50
2019-05-09T17:21:33.109Z,0.72
2019-05-09T17:24:03.865Z,0.20
2019-05-09T17:26:33.658Z,0.37
2019-05-09T17:29:03.316Z,0.30
2019-05-09T17:31:33.033Z,0.30
2019-05-09T17:34:02.712Z,0.30
2019-05-09T17:36:32.327Z,0.30
2019-05-09T17:39:02.059Z,0.40
2019-05-09T17:41:31.778Z,0.40
2019-05-09T17:44:01.511Z,0.20
2019-05-09T17:46:31.171Z,0.40
2019-05-09T17:49:00.927Z,0.40
2019-05-09T17:51:33.916Z,0.20
2019-05-09T17:54:01.934Z,0.13
2019-05-09T17:56:31.659Z,0.30
2019-05-09T17:59:01.384Z,0.30
2019-05-09T18:01:31.324Z,0.23
2019-05-09T18:04:01.007Z,0.40
2019-05-09T18:06:30.798Z,0.53
2019-05-09T18:09:00.580Z,1.10
2019-05-09T18:11:30.229Z,0.30
2019-05-09T18:14:00.035Z,0.25
2019-05-09T18:16:29.725Z,0.30
2019-05-09T18:19:01.535Z,0.30
2019-05-09T18:21:31.209Z,0.50
2019-05-09T18:24:00.915Z,0.75
2019-05-09T18:26:30.644Z,0.70
2019-05-09T18:29:01.830Z,0.30
2019-05-09T18:31:51.414Z,0.40
2019-05-09T18:34:21.184Z,0.80
2019-05-09T18:36:52.225Z,0.72
2019-05-09T18:39:23.030Z,0.70
2019-05-09T18:41:57.836Z,0.70
2019-05-09T18:47:58.948Z,0.80
2019-05-09T18:50:51.087Z,0.60
2019-05-09T18:53:49.186Z,0.40
2019-05-09T18:56:44.393Z,0.93
2019-05-09T18:59:33.841Z,0.60
2019-05-09T19:03:02.355Z,0.60
2019-05-09T19:05:37.057Z,0.60
2019-05-09T19:08:23.557Z,0.50
2019-05-09T19:10:53.733Z,0.60
2019-05-09T19:17:04.102Z,0.75
2019-05-09T19:19:54.206Z,0.78
2019-05-09T19:22:37.530Z,0.80
2019-05-09T19:25:32.155Z,0.98
2019-05-09T19:28:14.499Z,0.50
2019-05-09T19:30:44.556Z,0.42
2019-05-09T19:33:28.770Z,0.42
2019-05-09T19:36:10.676Z,0.53
2019-05-09T19:38:42.643Z,0.50
2019-05-09T19:41:18.652Z,2.17
2019-05-09T19:43:50.610Z,0.75
2019-05-09T19:46:20.642Z,0.80
2019-05-09T19:48:53.350Z,0.80
2019-05-09T19:51:24.867Z,0.70
2019-05-09T19:53:54.617Z,0.75
2019-05-09T19:56:24.333Z,0.80
2019-05-09T19:58:54.270Z,0.70
2019-05-09T20:01:26.766Z,0.70
2019-05-09T20:03:56.582Z,0.60
2019-05-09T20:06:27.691Z,0.93
2019-05-09T20:08:57.440Z,0.70
2019-05-09T20:11:52.224Z,0.60
2019-05-09T20:14:34.333Z,0.60
2019-05-09T20:17:05.678Z,0.65
2019-05-09T20:19:35.694Z,0.80
2019-05-09T20:22:07.130Z,0.60
2019-05-09T20:24:37.056Z,0.60
2019-05-09T20:27:06.954Z,0.57
2019-05-09T20:29:37.023Z,0.50
2019-05-09T20:32:09.627Z,0.62
2019-05-09T20:34:41.679Z,0.90
2019-05-09T20:37:11.505Z,1.20
2019-05-09T20:39:43.006Z,0.98
2019-05-09T20:42:13.010Z,0.50
2019-05-09T20:44:43.059Z,0.70
2019-05-09T20:47:13.057Z,0.80
2019-05-09T20:49:43.069Z,0.70
2019-05-09T20:52:13.047Z,0.85
2019-05-09T20:54:43.199Z,0.62
2019-05-09T20:57:13.190Z,1.10
2019-05-09T20:59:46.197Z,0.70
2019-05-09T21:02:20.825Z,1.05
2019-05-09T21:04:50.629Z,1.15
2019-05-09T21:07:20.658Z,2.40
2019-05-09T21:09:50.690Z,1.80
2019-05-09T21:12:20.670Z,1.70
2019-05-09T21:14:50.715Z,1.27
2019-05-09T21:17:22.137Z,1.30
2019-05-09T21:19:52.154Z,1.45
2019-05-09T21:22:25.200Z,1.20
2019-05-09T21:24:55.227Z,0.90
2019-05-09T21:27:25.224Z,0.80
2019-05-09T21:29:55.249Z,0.70
2019-05-09T21:32:25.210Z,1.50
2019-05-09T21:34:55.091Z,1.10
2019-05-09T21:37:25.063Z,1.00
2019-05-09T21:39:54.883Z,0.70
2019-05-09T21:42:24.724Z,0.88
2019-05-09T21:44:54.464Z,0.50
2019-05-09T21:47:24.292Z,0.90
2019-05-09T21:49:54.052Z,0.78
2019-05-09T21:52:23.844Z,0.70
2019-05-09T21:54:53.520Z,0.65
2019-05-09T21:57:23.328Z,0.70
2019-05-09T21:59:54.543Z,0.65
2019-05-09T22:02:24.442Z,0.50
2019-05-09T22:04:58.778Z,0.65
2019-05-09T22:07:28.704Z,0.50
2019-05-09T22:09:58.504Z,0.35
2019-05-09T22:12:31.114Z,0.47
2019-05-09T22:15:03.931Z,0.80
2019-05-09T22:17:38.454Z,0.50
2019-05-09T22:20:09.371Z,0.70
2019-05-09T22:22:39.166Z,0.42
2019-05-09T22:25:12.132Z,0.55
2019-05-09T22:27:41.675Z,0.57
2019-05-09T22:30:13.825Z,0.45
2019-05-09T22:32:43.928Z,0.40
2019-05-09T22:35:14.603Z,0.50
2019-05-09T22:37:44.534Z,0.40
2019-05-09T22:40:16.206Z,0.50
2019-05-09T22:42:45.884Z,0.50
2019-05-09T22:45:16.109Z,0.60
2019-05-09T22:47:45.917Z,0.42
2019-05-09T22:50:15.954Z,0.50
2019-05-09T22:52:45.674Z,0.50
2019-05-09T22:55:15.756Z,0.42
2019-05-09T22:57:45.629Z,0.50
2019-05-09T23:00:15.753Z,1.47
2019-05-09T23:02:45.722Z,0.37
2019-05-09T23:05:21.898Z,0.50
2019-05-09T23:07:51.715Z,0.55
2019-05-09T23:10:21.595Z,0.40
2019-05-09T23:12:51.383Z,0.37
2019-05-09T23:15:21.218Z,0.30
2019-05-09T23:17:50.962Z,0.30
2019-05-09T23:20:38.502Z,0.50
2019-05-09T23:23:33.457Z,0.37
2019-05-09T23:26:03.299Z,0.30
2019-05-09T23:28:32.967Z,0.50
2019-05-09T23:31:05.842Z,0.60
2019-05-09T23:33:39.784Z,0.47
2019-05-09T23:36:11.851Z,0.53
2019-05-09T23:38:59.242Z,0.50
2019-05-09T23:41:29.245Z,0.53
2019-05-09T23:43:59.076Z,0.40
2019-05-09T23:46:28.865Z,0.35
2019-05-09T23:48:58.663Z,0.30
2019-05-09T23:51:44.926Z,0.35
2019-05-09T23:54:45.453Z,0.30
2019-05-09T23:57:23.662Z,0.28
